Time;durP1;ratioP1;P1;durP2;ratioP2;P2;SDS_P1;SDS_P2;PMS_P1;PMS_P2;Temp;Humidity;BMP_temperature;BMP_pressure;BME280_temperature;BME280_humidity;BME280_pressure;Samples;Min_cycle;Max_cycle;Signal;HPM_P1;HPM_P2
2022/03/19 00:00:04;;;;;;;4.68;3.30;;;;;;;18.96;53.57;100423.41;4939885;29;20040;-90
2022/03/19 00:02:30;;;;;;;6.55;3.63;;;;;;;18.96;53.54;100412.81;4934703;29;20032;-89
2022/03/19 00:04:55;;;;;;;5.15;3.13;;;;;;;18.96;53.61;100410.16;4935144;29;20114;-89
2022/03/19 00:07:21;;;;;;;6.00;3.17;;;;;;;18.96;53.46;100411.94;4936154;29;20039;-89
2022/03/19 00:09:47;;;;;;;5.68;3.35;;;;;;;18.95;53.45;100408.44;4938084;29;20028;-90
2022/03/19 00:12:14;;;;;;;6.78;3.83;;;;;;;18.96;53.69;100407.53;4937375;29;20091;-89
2022/03/19 00:14:41;;;;;;;6.35;3.55;;;;;;;18.96;53.50;100407.53;4937618;29;20035;-89
2022/03/19 00:17:07;;;;;;;5.88;3.35;;;;;;;18.95;53.55;100404.94;4936501;29;20438;-90
2022/03/19 00:19:33;;;;;;;7.13;3.72;;;;;;;18.96;53.59;100402.22;4940551;29;20036;-91
2022/03/19 00:21:58;;;;;;;5.95;3.80;;;;;;;18.94;53.48;100404.09;4924029;29;20031;-90
2022/03/19 00:24:24;;;;;;;5.43;3.60;;;;;;;18.95;53.44;100407.56;4940117;29;20003;-91
2022/03/19 00:26:49;;;;;;;6.90;3.92;;;;;;;18.94;53.30;100409.38;4940887;29;20015;-89
2022/03/19 00:29:15;;;;;;;6.45;3.75;;;;;;;18.95;53.62;100410.22;4938036;29;20038;-89
2022/03/19 00:31:41;;;;;;;5.97;3.85;;;;;;;18.94;53.60;100411.16;4935872;29;20377;-90
2022/03/19 00:34:06;;;;;;;6.35;4.05;;;;;;;18.94;53.53;100414.66;4936552;29;20037;-90
2022/03/19 00:36:32;;;;;;;5.88;3.58;;;;;;;18.94;53.32;100414.66;4939126;29;20032;-91
2022/03/19 00:38:57;;;;;;;5.38;3.60;;;;;;;18.94;53.69;100409.38;4944125;29;20129;-92
2022/03/19 00:41:23;;;;;;;6.00;3.45;;;;;;;18.93;53.65;100412.91;4942797;29;20027;-92
2022/03/19 00:43:50;;;;;;;5.82;3.50;;;;;;;18.93;53.37;100407.63;4942974;29;20043;-92
2022/03/19 00:46:18;;;;;;;5.10;3.50;;;;;;;18.93;53.64;100412.91;4943297;29;20039;-91
2022/03/19 00:48:44;;;;;;;7.05;3.95;;;;;;;18.92;53.33;100406.78;4943526;29;20063;-92
2022/03/19 00:51:09;;;;;;;5.60;4.00;;;;;;;18.94;53.57;100414.66;4941274;29;20008;-91
2022/03/19 00:53:35;;;;;;;7.60;4.38;;;;;;;18.92;53.31;100408.56;4941471;29;20059;-91
2022/03/19 00:56:01;;;;;;;6.07;3.75;;;;;;;18.90;53.26;100407.75;4941271;29;20067;-91
2022/03/19 00:58:26;;;;;;;6.85;4.25;;;;;;;18.90;53.47;100402.47;4941097;29;20028;-91
2022/03/19 01:00:52;;;;;;;6.40;4.18;;;;;;;18.91;53.26;100407.72;4941952;29;20039;-91
2022/03/19 01:03:17;;;;;;;6.43;4.30;;;;;;;18.92;53.47;100397.97;4941479;29;20039;-92
2022/03/19 01:05:43;;;;;;;6.90;4.07;;;;;;;18.90;53.22;100398.03;4941571;29;20114;-91
2022/03/19 01:08:11;;;;;;;7.13;3.97;;;;;;;18.90;53.31;100397.19;4940707;29;20043;-92
2022/03/19 01:10:38;;;;;;;6.88;4.32;;;;;;;18.90;53.21;100397.19;4937666;29;20051;-92
2022/03/19 01:13:06;;;;;;;7.93;4.40;;;;;;;18.89;53.27;100390.16;4938153;29;20066;-91
2022/03/19 01:15:32;;;;;;;7.07;4.47;;;;;;;18.88;53.27;100394.59;4954987;29;20062;-92
2022/03/19 01:18:02;;;;;;;7.65;4.50;;;;;;;18.88;53.25;100391.06;4940297;29;20027;-92
2022/03/19 01:20:29;;;;;;;9.00;4.90;;;;;;;18.88;52.99;100394.59;4941416;29;20031;-91
2022/03/19 01:22:55;;;;;;;7.72;4.50;;;;;;;18.88;53.35;100393.72;4941241;29;20031;-91
2022/03/19 01:25:20;;;;;;;7.18;4.90;;;;;;;18.88;53.14;100391.94;4939560;29;20023;-91
2022/03/19 01:27:48;;;;;;;7.78;5.13;;;;;;;18.87;53.31;100390.22;4933778;29;20068;-90
2022/03/19 01:30:21;;;;;;;9.27;5.45;;;;;;;18.87;53.13;100392.88;4935031;29;20106;-91
2022/03/19 01:32:48;;;;;;;8.82;5.50;;;;;;;18.87;53.26;100392.88;4937708;29;20024;-91
2022/03/19 01:35:16;;;;;;;8.73;5.90;;;;;;;18.86;52.81;100388.50;4921713;29;20031;-90
2022/03/19 01:37:42;;;;;;;10.82;5.55;;;;;;;18.86;52.94;100383.22;4936515;29;20373;-90
2022/03/19 01:40:10;;;;;;;9.00;5.65;;;;;;;18.87;52.87;100384.06;4937691;29;20024;-91
2022/03/19 01:42:39;;;;;;;9.73;6.03;;;;;;;18.88;53.10;100383.13;4938763;29;20089;-91
2022/03/19 01:45:09;;;;;;;9.68;5.85;;;;;;;18.87;52.95;100384.06;4939419;29;20039;-92
2022/03/19 01:47:35;;;;;;;10.30;5.60;;;;;;;18.87;52.73;100381.41;4938095;29;20024;-91
2022/03/19 01:50:02;;;;;;;10.77;5.47;;;;;;;18.85;52.83;100378.84;4936710;29;20039;-90
2022/03/19 01:52:28;;;;;;;9.75;5.95;;;;;;;18.85;52.87;100385.91;4935525;29;20058;-91
2022/03/19 01:54:54;;;;;;;9.90;5.95;;;;;;;18.85;52.83;100372.69;4935840;29;20024;-91
2022/03/19 01:57:22;;;;;;;9.68;6.20;;;;;;;18.84;52.82;100374.44;4934890;29;20094;-90
2022/03/19 01:59:48;;;;;;;9.18;5.82;;;;;;;18.84;53.06;100378.91;4933037;29;20032;-89
2022/03/19 02:02:14;;;;;;;11.30;6.15;;;;;;;18.84;52.68;100370.97;4933675;29;20051;-90
2022/03/19 02:04:41;;;;;;;9.20;5.70;;;;;;;18.82;52.59;100372.78;4936331;29;20031;-91
2022/03/19 02:07:09;;;;;;;9.90;6.15;;;;;;;18.81;52.80;100371.06;4934319;29;20023;-91
2022/03/19 02:09:36;;;;;;;12.05;7.13;;;;;;;18.79;52.59;100356.13;4936422;29;20031;-90
2022/03/19 02:12:03;;;;;;;10.27;6.18;;;;;;;18.81;52.59;100365.78;4932931;29;20047;-88
2022/03/19 02:14:32;;;;;;;9.85;6.70;;;;;;;18.81;52.44;100371.06;4925602;29;20035;-89
2022/03/19 02:17:01;;;;;;;14.32;8.55;;;;;;;18.80;52.55;100362.28;4927610;29;20450;-89
2022/03/19 02:19:26;;;;;;;10.30;6.80;;;;;;;18.80;52.39;100359.66;4928355;29;20027;-90
2022/03/19 02:21:52;;;;;;;11.52;7.05;;;;;;;18.79;52.38;100353.47;4947372;29;20087;-90
2022/03/19 02:27:03;;;;;;;10.23;6.93;;;;;;;18.76;52.12;100353.59;4948422;29;20122;-89
2022/03/19 02:29:29;;;;;;;9.85;7.32;;;;;;;18.78;52.31;100362.34;4935688;29;20083;-90
2022/03/19 02:31:57;;;;;;;10.88;7.53;;;;;;;18.77;52.15;100365.91;4936825;29;20096;-89
2022/03/19 02:34:24;;;;;;;11.80;7.38;;;;;;;18.77;52.04;100360.63;4953896;29;20027;-90
2022/03/19 02:36:49;;;;;;;10.75;7.22;;;;;;;18.76;52.28;100358.91;4933500;29;20028;-90
2022/03/19 02:39:16;;;;;;;10.73;6.60;;;;;;;18.77;52.27;100360.63;4934150;29;20020;-90
2022/03/19 02:42:05;;;;;;;10.70;7.45;;;;;;;18.75;52.20;100356.31;4950030;29;20027;-90
2022/03/19 02:44:31;;;;;;;13.73;7.50;;;;;;;18.75;52.18;100357.16;4925269;29;20031;-90
2022/03/19 02:46:59;;;;;;;9.82;7.28;;;;;;;18.75;52.21;100359.78;4930687;29;20038;-90
2022/03/19 02:49:25;;;;;;;10.68;7.05;;;;;;;18.75;52.46;100367.72;4930009;29;20059;-90
2022/03/19 02:51:53;;;;;;;11.32;7.38;;;;;;;18.75;52.32;100357.16;4930309;29;20548;-91
2022/03/19 02:54:21;;;;;;;9.68;8.15;;;;;;;18.75;52.27;100357.16;4932213;29;20035;-91
2022/03/19 02:56:47;;;;;;;9.95;7.20;;;;;;;18.73;52.22;100361.66;4930943;29;20027;-90
2022/03/19 02:59:17;;;;;;;12.60;8.05;;;;;;;18.73;52.27;100359.00;4928885;29;20031;-90
2022/03/19 03:01:47;;;;;;;10.70;7.85;;;;;;;18.72;52.29;100356.41;4928395;29;20050;-89
2022/03/19 03:04:13;;;;;;;12.35;7.13;;;;;;;18.73;52.16;100356.34;4928033;29;20024;-89
2022/03/19 03:06:41;;;;;;;11.40;7.20;;;;;;;18.73;52.10;100359.00;4937559;29;20034;-91
2022/03/19 03:09:08;;;;;;;9.52;7.07;;;;;;;18.73;52.09;100353.72;4939585;29;20035;-89
2022/03/19 03:11:35;;;;;;;10.50;7.70;;;;;;;18.74;52.25;100350.16;4939711;29;20052;-90
2022/03/19 03:14:02;;;;;;;11.23;7.28;;;;;;;18.75;52.00;100349.22;4938700;29;20054;-90
2022/03/19 03:16:48;;;;;;;10.02;7.40;;;;;;;18.74;52.05;100336.09;4941276;29;20040;-91
2022/03/19 03:19:15;;;;;;;11.10;7.35;;;;;;;18.72;52.17;100341.41;4943506;29;20032;-90
2022/03/19 03:21:43;;;;;;;10.50;7.45;;;;;;;18.73;51.87;100340.50;4944004;29;20028;-91
2022/03/19 03:24:10;;;;;;;12.07;7.57;;;;;;;18.70;52.12;100343.25;4928392;29;20043;-90
2022/03/19 03:26:40;;;;;;;10.57;7.65;;;;;;;18.72;52.27;100340.53;4943934;29;20035;-90
2022/03/19 03:29:07;;;;;;;10.63;7.68;;;;;;;18.72;52.04;100344.06;4939021;29;20059;-88
2022/03/19 03:31:33;;;;;;;9.23;7.18;;;;;;;18.69;52.17;100349.44;4940899;29;20016;-90
2022/03/19 03:33:59;;;;;;;9.60;7.65;;;;;;;18.70;52.10;100351.16;4942233;29;20023;-91
2022/03/19 03:36:25;;;;;;;10.55;7.85;;;;;;;18.70;51.88;100343.25;4941684;29;20015;-89
2022/03/19 03:38:50;;;;;;;10.77;7.75;;;;;;;18.68;51.93;100347.72;4940715;29;20031;-90
2022/03/19 03:41:16;;;;;;;10.00;7.20;;;;;;;18.68;51.98;100346.88;4938686;29;20039;-90
2022/03/19 03:43:42;;;;;;;10.55;7.45;;;;;;;18.67;51.78;100347.78;4933414;29;20031;-91
2022/03/19 03:46:08;;;;;;;12.07;7.68;;;;;;;18.67;51.92;100343.38;4931481;29;20407;-90
2022/03/19 03:48:38;;;;;;;9.20;7.43;;;;;;;18.70;52.11;100348.53;4921705;29;20028;-91
2022/03/19 03:51:06;;;;;;;11.23;7.45;;;;;;;18.68;52.24;100350.38;4940218;29;20004;-92
2022/03/19 03:53:33;;;;;;;12.50;8.30;;;;;;;18.66;52.24;100354.88;4924592;29;20046;-90
2022/03/19 03:55:59;;;;;;;10.05;7.28;;;;;;;18.66;52.20;100346.94;4939211;29;20030;-91
2022/03/19 03:58:25;;;;;;;11.80;7.85;;;;;;;18.66;52.12;100357.50;4937719;29;20458;-91
2022/03/19 04:00:54;;;;;;;11.07;7.72;;;;;;;18.65;51.85;100345.22;4936791;29;20024;-91
2022/03/19 04:03:20;;;;;;;10.15;7.10;;;;;;;18.64;52.12;100343.47;4938971;29;20377;-91
2022/03/19 04:05:46;;;;;;;10.98;8.23;;;;;;;18.65;51.95;100345.22;4942408;29;20043;-91
2022/03/19 04:08:12;;;;;;;12.00;8.13;;;;;;;18.65;52.11;100348.69;4941927;29;20041;-91
2022/03/19 04:10:37;;;;;;;11.88;7.85;;;;;;;18.62;51.78;100348.84;4937296;29;20091;-90
2022/03/19 04:13:03;;;;;;;10.82;6.95;;;;;;;18.61;51.88;100360.34;4936049;29;20027;-90
2022/03/19 04:15:29;;;;;;;11.25;7.35;;;;;;;18.61;51.96;100356.81;4935205;29;20032;-91
2022/03/19 04:17:55;;;;;;;12.73;7.68;;;;;;;18.62;52.03;100358.53;4934042;29;20064;-90
2022/03/19 04:20:22;;;;;;;9.05;6.82;;;;;;;18.61;52.08;100364.75;4935418;29;20027;-91
2022/03/19 04:22:49;;;;;;;10.70;7.50;;;;;;;18.58;51.83;100360.44;4939359;29;20055;-92
2022/03/19 04:25:17;;;;;;;11.73;7.75;;;;;;;18.59;51.85;100361.31;4925099;29;20055;-91
2022/03/19 04:27:49;;;;;;;11.23;7.40;;;;;;;18.55;51.59;100362.31;4941893;29;20036;-91
2022/03/19 04:30:16;;;;;;;11.13;7.55;;;;;;;18.54;52.01;100366.75;4939910;29;20079;-92
2022/03/19 04:32:47;;;;;;;12.25;8.30;;;;;;;18.55;51.51;100364.97;4940441;29;20038;-93
2022/03/19 04:38:06;;;;;;;12.23;7.45;;;;;;;18.49;51.77;100366.91;4963132;29;20075;-92
2022/03/19 04:40:33;;;;;;;11.65;8.02;;;;;;;18.49;51.48;100366.91;4942321;29;20039;-92
2022/03/19 04:43:03;;;;;;;12.02;8.40;;;;;;;18.49;51.54;100361.63;4963367;28;20008;-93
2022/03/19 04:45:42;;;;;;;13.70;8.30;;;;;;;18.45;51.83;100365.28;4929300;28;20047;-92
2022/03/19 04:48:12;;;;;;;10.52;8.30;;;;;;;18.46;51.63;100361.72;4947096;28;20039;-96
2022/03/19 04:50:48;;;;;;;12.40;8.20;;;;;;;18.45;51.63;100365.28;4947713;28;20102;-95
2022/03/19 04:53:14;;;;;;;13.75;8.77;;;;;;;18.47;51.70;100374.03;4940955;29;20071;-93
2022/03/19 04:55:40;;;;;;;13.30;8.05;;;;;;;18.45;51.86;100367.09;4936623;29;20037;-91
2022/03/19 04:58:07;;;;;;;11.35;7.70;;;;;;;18.45;51.67;100364.44;4939319;29;20023;-90
2022/03/19 05:00:33;;;;;;;11.40;7.97;;;;;;;18.44;52.04;100363.56;4939563;29;20032;-90
2022/03/19 05:02:59;;;;;;;11.48;8.32;;;;;;;18.43;51.89;100367.13;4938308;29;20055;-91
2022/03/19 05:05:27;;;;;;;13.32;8.43;;;;;;;18.43;51.66;100368.91;4941115;29;20034;-92
2022/03/19 05:07:58;;;;;;;12.82;7.50;;;;;;;18.44;51.54;100368.00;4944478;29;20024;-93
2022/03/19 05:13:11;;;;;;;12.25;7.57;;;;;;;18.44;51.88;100379.44;4952681;29;20070;-91
2022/03/19 05:15:37;;;;;;;12.45;7.50;;;;;;;18.45;51.72;100381.16;4933178;29;20031;-90
2022/03/19 05:18:03;;;;;;;10.48;7.25;;;;;;;18.44;51.98;100374.13;4931221;29;20027;-89
2022/03/19 05:20:29;;;;;;;12.50;7.82;;;;;;;18.45;51.78;100385.59;4934867;29;20063;-91
2022/03/19 05:22:54;;;;;;;9.73;7.53;;;;;;;18.42;51.88;100378.63;4936188;29;20024;-90
2022/03/19 05:25:20;;;;;;;11.85;7.65;;;;;;;18.42;51.86;100381.28;4936132;29;20028;-93
2022/03/19 05:27:45;;;;;;;12.00;7.40;;;;;;;18.42;51.82;100381.28;4922807;29;20039;-91
2022/03/19 05:30:11;;;;;;;11.32;7.45;;;;;;;18.42;51.67;100381.28;4936439;29;20055;-91
2022/03/19 05:32:37;;;;;;;9.55;7.10;;;;;;;18.39;51.67;100386.66;4921335;29;20536;-91
2022/03/19 05:35:04;;;;;;;11.30;7.65;;;;;;;18.39;51.85;100384.00;4937659;29;20024;-90
2022/03/19 05:37:31;;;;;;;12.02;7.82;;;;;;;18.40;51.70;100383.09;4938051;29;20031;-90
2022/03/19 05:39:57;;;;;;;10.95;8.00;;;;;;;18.40;51.59;100383.09;4940109;29;20038;-90
2022/03/19 05:42:23;;;;;;;11.82;8.32;;;;;;;18.36;51.57;100386.78;4925515;29;20016;-89
2022/03/19 05:44:49;;;;;;;13.55;7.88;;;;;;;18.36;51.86;100381.50;4929307;29;20054;-90
2022/03/19 05:47:15;;;;;;;10.93;7.60;;;;;;;18.35;52.00;100375.31;4934435;29;20027;-93
2022/03/19 05:49:41;;;;;;;10.82;7.07;;;;;;;18.36;52.06;100386.78;4941011;29;20028;-91
2022/03/19 05:52:07;;;;;;;11.82;7.47;;;;;;;18.33;51.61;100382.47;4940534;29;20023;-92
2022/03/19 05:54:33;;;;;;;11.35;7.18;;;;;;;18.34;51.82;100378.00;4939268;29;20037;-90
2022/03/19 05:56:58;;;;;;;10.80;7.38;;;;;;;18.34;51.63;100383.31;4936638;29;20059;-90
2022/03/19 05:59:24;;;;;;;11.98;7.75;;;;;;;18.33;51.79;100384.22;4924935;29;20031;-88
2022/03/19 06:01:50;;;;;;;11.18;7.35;;;;;;;18.32;51.71;100385.16;4941795;29;20034;-90
2022/03/19 06:04:16;;;;;;;12.13;7.13;;;;;;;18.30;51.70;100393.13;4934703;29;20031;-92
2022/03/19 06:06:42;;;;;;;9.52;7.00;;;;;;;18.32;51.67;100398.34;4940766;29;20035;-91
2022/03/19 06:09:08;;;;;;;12.32;8.32;;;;;;;18.31;51.51;100396.63;4941150;29;20097;-91
2022/03/19 06:11:34;;;;;;;11.60;7.60;;;;;;;18.29;51.33;100395.81;4943882;29;20035;-91
2022/03/19 06:14:00;;;;;;;13.45;8.60;;;;;;;18.28;51.41;100402.00;4928318;29;20040;-92
2022/03/19 06:16:26;;;;;;;12.70;8.18;;;;;;;18.25;51.55;100398.56;4943279;29;20035;-92
2022/03/19 06:18:52;;;;;;;12.40;7.40;;;;;;;18.27;51.27;100402.94;4927809;29;20450;-92
2022/03/19 06:21:23;;;;;;;11.98;7.88;;;;;;;18.24;51.46;100402.13;4928457;29;20142;-91
2022/03/19 06:23:52;;;;;;;11.93;7.88;;;;;;;18.23;51.61;100395.13;4944864;29;20008;-91
2022/03/19 06:26:23;;;;;;;14.98;7.40;;;;;;;18.20;51.14;100392.59;4943748;28;20036;-93
2022/03/19 06:29:09;;;;;;;12.07;8.38;;;;;;;18.18;51.33;100393.53;4960846;28;20043;-92
2022/03/19 06:31:36;;;;;;;12.38;7.90;;;;;;;18.15;50.95;100393.66;4944434;29;20056;-92
2022/03/19 06:34:02;;;;;;;11.70;7.72;;;;;;;18.13;51.39;100391.06;4942886;29;20055;-91
2022/03/19 06:39:17;;;;;;;12.35;7.55;;;;;;;18.07;51.15;100394.78;4947725;29;20046;-93
2022/03/19 06:41:45;;;;;;;13.02;7.80;;;;;;;18.07;50.95;100401.84;4944617;29;20055;-91
2022/03/19 06:44:13;;;;;;;14.27;8.38;;;;;;;18.06;50.94;100390.41;4929097;29;20015;-91
2022/03/19 06:46:40;;;;;;;13.05;8.38;;;;;;;18.08;51.17;100393.00;4928470;29;20030;-93
2022/03/19 06:49:06;;;;;;;14.10;8.05;;;;;;;18.06;51.13;100394.84;4938421;29;20043;-89
2022/03/19 06:51:33;;;;;;;15.43;8.15;;;;;;;18.05;51.21;100393.94;4934531;29;20019;-90
2022/03/19 06:53:59;;;;;;;11.73;8.30;;;;;;;18.06;50.87;100389.56;4934236;29;20038;-90
2022/03/19 06:56:24;;;;;;;13.23;8.18;;;;;;;18.04;50.91;100391.34;4935934;29;20052;-90
2022/03/19 06:58:50;;;;;;;13.73;9.32;;;;;;;18.05;51.13;100393.06;4937298;29;20027;-90
2022/03/19 07:01:16;;;;;;;11.52;7.88;;;;;;;18.05;50.81;100393.94;4939898;29;20028;-91
2022/03/19 07:03:44;;;;;;;11.80;7.72;;;;;;;18.07;51.10;100391.28;4911002;29;20020;-93
2022/03/19 07:06:13;;;;;;;13.25;8.45;;;;;;;18.05;50.75;100387.78;4927875;29;20047;-92
2022/03/19 07:08:51;;;;;;;11.88;8.60;;;;;;;18.02;51.02;100385.25;4944243;29;20048;-92
2022/03/19 07:11:16;;;;;;;12.32;7.95;;;;;;;18.03;50.91;100390.50;4927005;29;20055;-94
2022/03/19 07:13:45;;;;;;;13.13;8.10;;;;;;;18.02;50.91;100388.75;4924903;29;20064;-92
2022/03/19 07:16:15;;;;;;;13.70;9.15;;;;;;;18.01;51.11;100381.75;4959585;29;20016;-93
2022/03/19 07:19:02;;;;;;;12.43;8.68;;;;;;;18.02;50.91;100387.91;4928772;29;20016;-94
2022/03/19 07:21:32;;;;;;;13.02;9.10;;;;;;;18.06;50.87;100389.56;4942422;29;20075;-91
2022/03/19 07:23:58;;;;;;;14.07;8.68;;;;;;;18.03;50.67;100384.34;4928335;29;20091;-92
2022/03/19 07:26:26;;;;;;;13.30;8.48;;;;;;;18.05;50.68;100387.78;4942716;29;20020;-94
2022/03/19 07:28:55;;;;;;;12.70;8.40;;;;;;;18.05;50.68;100393.06;4929432;29;20047;-93
2022/03/19 07:31:21;;;;;;;14.27;8.68;;;;;;;18.06;51.10;100393.06;4929778;29;20039;-93
2022/03/19 07:33:47;;;;;;;14.07;8.63;;;;;;;18.07;50.85;100380.72;4947365;29;20055;-91
2022/03/19 07:36:13;;;;;;;13.40;8.65;;;;;;;18.06;50.93;100382.47;4962105;29;20031;-92
2022/03/19 07:38:54;;;;;;;12.88;8.57;;;;;;;18.10;50.81;100380.59;4946552;29;20059;-93
2022/03/19 07:44:05;;;;;;;14.30;8.52;;;;;;;18.10;50.79;100391.16;4957803;29;20059;-93
2022/03/19 07:46:30;;;;;;;13.63;9.07;;;;;;;18.10;50.98;100383.25;4941124;29;20035;-92
2022/03/19 07:48:56;;;;;;;14.80;8.93;;;;;;;18.06;51.00;100390.41;4926357;29;20066;-90
2022/03/19 07:51:23;;;;;;;12.10;8.20;;;;;;;18.07;50.74;100386.00;4941010;29;20020;-92
2022/03/19 07:53:49;;;;;;;13.77;9.52;;;;;;;18.09;50.85;100389.44;4936557;29;20038;-92
2022/03/19 07:56:14;;;;;;;12.85;9.52;;;;;;;18.10;50.70;100386.75;4933890;29;20047;-91
2022/03/19 07:58:40;;;;;;;12.73;9.02;;;;;;;18.12;50.95;100389.34;4935970;29;20027;-91
2022/03/19 08:01:07;;;;;;;13.25;9.10;;;;;;;18.11;50.64;100392.88;4936056;29;20095;-92
2022/03/19 08:03:36;;;;;;;13.65;9.27;;;;;;;18.10;51.07;100409.66;4914989;29;20048;-94
2022/03/19 08:06:04;;;;;;;12.20;9.18;;;;;;;18.14;50.90;100397.19;4942223;29;20032;-93
2022/03/19 08:08:37;;;;;;;14.02;9.48;;;;;;;18.15;50.76;100393.66;4944538;29;20085;-95
2022/03/19 08:11:25;;;;;;;12.93;8.98;;;;;;;18.15;50.85;100393.66;4946382;29;20044;-94
2022/03/19 08:16:24;;;;;;;13.35;8.98;;;;;;;18.18;50.77;100405.00;4954179;29;20074;-93
2022/03/19 08:19:00;;;;;;;13.50;9.13;;;;;;;18.22;50.83;100409.22;4929346;29;20099;-93
2022/03/19 08:21:26;;;;;;;10.98;8.57;;;;;;;18.23;51.05;100403.06;4955613;29;20050;-91
2022/03/19 08:23:53;;;;;;;12.23;8.50;;;;;;;18.25;51.63;100411.78;4924282;29;20028;-93
2022/03/19 08:26:19;;;;;;;15.00;9.07;;;;;;;18.28;52.16;100409.94;4954366;29;20027;-93
2022/03/19 08:28:56;;;;;;;12.02;8.88;;;;;;;18.32;52.38;100430.06;4951791;29;20024;-90
2022/03/19 08:31:26;;;;;;;15.88;8.65;;;;;;;18.35;52.27;100412.31;4939437;29;20042;-93
2022/03/19 08:33:52;;;;;;;14.52;8.52;;;;;;;18.40;52.72;100420.06;4931453;29;20027;-90
2022/03/19 08:36:18;;;;;;;15.77;9.10;;;;;;;18.47;52.97;100415.44;4947591;29;20454;-90
2022/03/19 08:41:27;;;;;;;17.40;9.77;;;;;;;18.54;52.33;100401.09;4943616;29;20127;-90
2022/03/19 08:43:53;;;;;;;20.10;10.23;;;;;;;18.56;52.33;100390.47;4945427;29;20063;-88
2022/03/19 08:46:19;;;;;;;14.40;9.32;;;;;;;18.59;52.16;100403.59;4926880;29;20034;-88
2022/03/19 08:48:48;;;;;;;17.83;9.15;;;;;;;18.62;52.08;100392.91;4944749;29;20027;-89
2022/03/19 08:51:55;;;;;;;14.45;9.35;;;;;;;18.63;51.57;100394.63;4944203;29;20095;-87
2022/03/19 08:54:10;;;;;;;18.63;10.25;;;;;;;18.65;51.53;100398.94;4937430;29;20035;-87
2022/03/19 08:56:36;;;;;;;18.48;9.68;;;;;;;18.67;51.02;100396.25;4927581;29;20034;-86
2022/03/19 08:59:13;;;;;;;18.13;9.60;;;;;;;18.69;50.96;100398.84;4947011;29;20039;-89
2022/03/19 09:01:44;;;;;;;16.55;9.70;;;;;;;18.67;50.52;100396.25;4949079;29;20095;-91
2022/03/19 09:04:11;;;;;;;15.45;9.75;;;;;;;18.67;50.45;100395.38;4942880;29;20038;-89
2022/03/19 09:06:37;;;;;;;14.02;9.65;;;;;;;18.65;50.23;100408.66;4944954;29;20118;-86
2022/03/19 09:09:03;;;;;;;14.82;10.07;;;;;;;18.63;50.11;100389.31;4945706;29;20057;-87
2022/03/19 09:11:34;;;;;;;13.23;9.65;;;;;;;18.62;50.00;100403.47;4944034;29;20442;-86
2022/03/19 09:14:03;;;;;;;15.23;9.55;;;;;;;18.62;49.66;100398.19;4952105;29;20032;-86
2022/03/19 09:16:29;;;;;;;15.60;10.25;;;;;;;18.64;49.93;100415.72;4946539;29;20052;-86
2022/03/19 09:18:56;;;;;;;13.95;9.15;;;;;;;18.63;49.66;100394.63;4924802;29;20050;-86
2022/03/19 09:21:22;;;;;;;16.35;10.63;;;;;;;18.64;49.60;100401.63;4923975;29;20024;-86
2022/03/19 09:23:49;;;;;;;17.65;10.23;;;;;;;18.64;49.50;100396.34;4923107;29;20534;-88
2022/03/19 09:26:16;;;;;;;17.90;9.95;;;;;;;18.63;49.69;100411.34;4941453;29;20028;-87
2022/03/19 09:28:42;;;;;;;18.58;9.90;;;;;;;18.62;49.38;100398.19;4925186;29;20024;-86
2022/03/19 09:31:08;;;;;;;17.73;10.20;;;;;;;18.63;49.08;100405.19;4924663;29;20518;-86
2022/03/19 09:33:34;;;;;;;16.88;10.43;;;;;;;18.63;49.39;100398.13;4924363;29;20028;-89
2022/03/19 09:36:05;;;;;;;15.43;10.27;;;;;;;18.62;49.00;100403.47;4924810;29;20028;-88
2022/03/19 09:38:31;;;;;;;13.18;9.25;;;;;;;18.66;48.84;100389.22;4927629;29;20030;-87
2022/03/19 09:40:57;;;;;;;24.08;9.50;;;;;;;18.68;48.65;100397.97;4931047;29;20425;-87
2022/03/19 09:43:23;;;;;;;22.15;10.38;;;;;;;18.71;48.53;100402.28;4929604;29;20095;-88
2022/03/19 09:45:50;;;;;;;28.55;10.32;;;;;;;18.68;47.29;100390.03;4942945;29;20031;-89
2022/03/19 09:48:15;;;;;;;18.23;9.43;;;;;;;18.65;46.61;100408.66;4929058;29;20028;-87
2022/03/19 09:50:41;;;;;;;21.60;10.18;;;;;;;18.60;46.50;100390.31;4928703;29;20032;-89
2022/03/19 09:53:09;;;;;;;16.65;9.63;;;;;;;18.58;45.62;100391.28;4932342;29;20028;-89
2022/03/19 09:55:37;;;;;;;18.98;10.93;;;;;;;18.54;45.64;100384.41;4933041;29;20035;-89
2022/03/19 09:58:04;;;;;;;16.15;9.25;;;;;;;18.47;45.89;100386.38;4931180;29;20095;-89
2022/03/19 10:00:31;;;;;;;17.42;9.98;;;;;;;18.43;46.59;100383.00;4930247;29;20032;-89
2022/03/19 10:02:59;;;;;;;14.13;9.40;;;;;;;18.44;46.65;100394.44;4930038;29;20024;-88
2022/03/19 10:11:00;;;;;;;18.77;9.50;;;;;;;18.41;46.90;100378.69;4931787;29;20067;-89
2022/03/19 10:13:26;;;;;;;17.92;9.20;;;;;;;18.42;46.72;100380.41;4930828;29;20099;-91
2022/03/19 10:15:52;;;;;;;14.73;10.00;;;;;;;18.39;47.38;100386.66;4931816;29;20452;-90
2022/03/19 10:18:27;;;;;;;16.42;9.40;;;;;;;18.41;47.26;100390.13;4948266;29;20032;-89
2022/03/19 10:20:54;;;;;;;15.63;9.57;;;;;;;18.43;46.98;100377.72;4933481;29;20096;-89
2022/03/19 10:23:41;;;;;;;14.68;9.27;;;;;;;18.42;47.20;100389.19;4929695;29;20066;-89
2022/03/19 10:26:08;;;;;;;13.98;8.73;;;;;;;18.43;46.79;100380.34;4927020;29;20039;-88
2022/03/19 10:28:36;;;;;;;18.13;9.27;;;;;;;18.45;46.82;100381.16;4926446;29;20039;-87
2022/03/19 10:31:02;;;;;;;16.10;9.35;;;;;;;18.47;46.67;100371.41;4926984;29;20083;-88
2022/03/19 10:33:32;;;;;;;15.15;9.13;;;;;;;18.49;46.79;100372.19;4942465;29;20111;-87
2022/03/19 10:36:06;;;;;;;19.98;9.50;;;;;;;18.51;46.71;100385.38;4925832;29;20024;-87
2022/03/19 10:38:44;;;;;;;16.40;8.82;;;;;;;18.52;47.07;100365.94;4927174;29;20028;-87
2022/03/19 10:41:10;;;;;;;16.52;9.70;;;;;;;18.52;47.01;100366.81;4927257;29;20031;-88
2022/03/19 10:43:35;;;;;;;16.20;9.40;;;;;;;18.52;47.60;100374.75;4943520;29;20031;-88
2022/03/19 10:46:03;;;;;;;15.02;8.85;;;;;;;18.50;47.62;100366.00;4927381;29;20028;-86
2022/03/19 10:48:29;;;;;;;15.68;9.45;;;;;;;18.50;47.51;100322.84;4924719;29;20027;-89
2022/03/19 10:50:57;;;;;;;18.10;9.88;;;;;;;18.48;47.82;100357.25;4923893;29;20127;-89
2022/03/19 10:53:25;;;;;;;15.32;9.15;;;;;;;18.47;47.54;100357.31;4942427;29;20032;-89
2022/03/19 10:55:52;;;;;;;13.43;8.88;;;;;;;18.46;47.20;100369.66;4942296;29;20036;-89
2022/03/19 10:58:17;;;;;;;15.98;8.85;;;;;;;18.46;46.58;100355.59;4941766;29;20032;-87
2022/03/19 11:00:48;;;;;;;14.63;9.15;;;;;;;18.44;45.82;100353.00;4924894;29;20414;-87
2022/03/19 11:03:27;;;;;;;15.18;9.50;;;;;;;18.45;45.62;100343.31;4920573;29;20075;-87
2022/03/19 11:06:06;;;;;;;13.30;8.43;;;;;;;18.45;46.03;100345.94;4928320;29;20024;-87
2022/03/19 11:08:43;;;;;;;17.35;9.13;;;;;;;18.43;45.01;100340.72;4929253;29;20032;-87
2022/03/19 11:11:47;;;;;;;13.75;8.50;;;;;;;18.44;45.74;100352.16;4925475;29;20019;-89
2022/03/19 11:14:22;;;;;;;12.93;8.63;;;;;;;18.44;46.13;100360.94;4927134;29;20066;-87
2022/03/19 11:17:23;;;;;;;17.05;8.60;;;;;;;18.43;45.39;100346.00;4932538;29;20050;-87
2022/03/19 11:19:39;;;;;;;14.18;8.75;;;;;;;18.43;45.91;100337.19;4951983;29;20016;-91
2022/03/19 11:22:05;;;;;;;15.30;9.25;;;;;;;18.44;45.01;100342.44;4933415;29;20035;-90
2022/03/19 11:24:36;;;;;;;13.35;8.73;;;;;;;18.44;46.03;100352.16;4950345;29;20047;-88
2022/03/19 11:27:03;;;;;;;17.38;9.77;;;;;;;18.44;45.43;100358.28;4948396;29;20023;-88
2022/03/19 11:29:29;;;;;;;15.77;8.88;;;;;;;18.42;44.76;100343.41;4933083;29;20462;-88
2022/03/19 11:32:01;;;;;;;14.32;9.00;;;;;;;18.43;44.60;100347.75;4931929;29;20056;-88
2022/03/19 11:34:42;;;;;;;16.30;8.75;;;;;;;18.42;44.08;100348.69;4931862;29;20032;-89
2022/03/19 11:37:07;;;;;;;14.30;9.00;;;;;;;18.41;43.79;100341.69;4931600;29;20020;-88
2022/03/19 11:39:33;;;;;;;17.55;8.45;;;;;;;18.40;43.52;100335.53;4947687;29;20465;-88
2022/03/19 11:41:59;;;;;;;13.98;9.15;;;;;;;18.40;43.89;100350.53;4942987;29;20050;-88
2022/03/19 11:44:28;;;;;;;14.52;9.18;;;;;;;18.41;44.60;100336.41;4930937;29;20075;-88
2022/03/19 11:46:59;;;;;;;12.50;8.90;;;;;;;18.39;44.78;100344.38;4944060;29;20038;-88